createdAt,value
2022-09-14T00:01:25.338Z,99063.35
2022-09-14T00:03:54.542Z,99056.80
2022-09-14T00:06:22.100Z,99052.72
2022-09-14T00:08:51.872Z,99054.56
2022-09-14T00:11:19.781Z,99053.48
2022-09-14T00:13:48.118Z,99046.11
2022-09-14T00:16:28.164Z,99044.15
2022-09-14T00:19:05.033Z,99045.57
2022-09-14T00:21:37.461Z,99040.68
2022-09-14T00:24:06.658Z,99036.81
2022-09-14T00:26:34.218Z,99036.99
2022-09-14T00:29:05.262Z,99031.90
2022-09-14T00:31:38.439Z,99025.70
2022-09-14T00:34:07.871Z,99029.58
2022-09-14T00:36:40.783Z,99027.05
2022-09-14T00:39:08.499Z,99032.29
2022-09-14T00:41:38.202Z,99025.91
2022-09-14T00:44:09.986Z,99022.06
2022-09-14T00:46:40.262Z,99020.70
2022-09-14T00:49:11.843Z,99020.23
2022-09-14T00:51:43.239Z,99019.39
2022-09-14T00:54:10.135Z,99015.91
2022-09-14T00:56:37.545Z,99014.54
2022-09-14T00:59:13.834Z,99012.77
2022-09-14T01:01:41.005Z,99010.00
2022-09-14T01:04:08.258Z,99007.88
2022-09-14T01:06:43.190Z,99008.04
2022-09-14T01:09:38.902Z,99001.70
2022-09-14T01:12:10.666Z,98999.70
2022-09-14T01:15:01.267Z,98991.42
2022-09-14T01:17:49.966Z,98988.56
2022-09-14T01:20:27.393Z,98990.45
2022-09-14T01:23:10.178Z,98990.73
2022-09-14T01:25:58.071Z,98978.01
2022-09-14T01:28:39.388Z,98971.15
2022-09-14T01:31:12.968Z,98974.81
2022-09-14T01:33:58.733Z,98981.64
2022-09-14T01:36:29.771Z,98974.94
2022-09-14T01:38:57.229Z,98972.63
2022-09-14T01:41:29.850Z,98974.45
2022-09-14T01:44:03.645Z,98976.33
2022-09-14T01:46:39.479Z,98980.66
2022-09-14T01:49:26.724Z,98976.25
2022-09-14T01:51:59.604Z,98975.52
2022-09-14T01:54:42.814Z,98973.00
2022-09-14T01:57:16.234Z,98975.66
2022-09-14T01:59:45.859Z,98972.44
2022-09-14T02:02:20.449Z,98965.50
2022-09-14T02:05:10.023Z,98963.04
2022-09-14T02:07:38.147Z,98966.17
2022-09-14T02:10:08.586Z,98970.37
2022-09-14T02:12:36.054Z,98966.73
2022-09-14T02:15:05.053Z,98964.25
2022-09-14T02:17:32.175Z,98966.15
2022-09-14T02:20:01.731Z,98956.04
2022-09-14T02:22:30.800Z,98953.88
2022-09-14T02:24:58.336Z,98950.83
2022-09-14T02:43:58.913Z,98944.02
2022-09-14T02:46:52.313Z,98944.75
2022-09-14T02:49:38.458Z,98935.42
2022-09-14T02:52:39.611Z,98928.64
2022-09-14T02:55:15.455Z,98934.25
2022-09-14T02:58:03.773Z,98934.98
2022-09-14T03:00:36.907Z,98924.73
2022-09-14T03:03:07.416Z,98924.92
2022-09-14T03:05:36.405Z,98915.55
2022-09-14T03:08:05.506Z,98912.98
2022-09-14T03:10:34.140Z,98917.15
2022-09-14T03:13:02.985Z,98923.46
2022-09-14T03:15:31.768Z,98928.04
2022-09-14T03:18:00.091Z,98926.52
2022-09-14T03:20:31.729Z,98922.75
2022-09-14T03:23:01.216Z,98922.09
2022-09-14T03:25:29.926Z,98917.36
2022-09-14T03:28:00.120Z,98918.61
2022-09-14T03:30:29.531Z,98920.89
2022-09-14T03:33:01.476Z,98920.86
2022-09-14T03:35:31.841Z,98922.55
2022-09-14T03:37:59.941Z,98921.08
2022-09-14T03:40:28.474Z,98923.70
2022-09-14T03:42:57.244Z,98918.18
2022-09-14T03:45:25.454Z,98917.08
2022-09-14T03:47:53.608Z,98909.29
2022-09-14T03:50:22.518Z,98910.27
2022-09-14T03:52:50.859Z,98910.23
2022-09-14T03:55:19.365Z,98911.86
2022-09-14T03:57:48.028Z,98915.81
2022-09-14T04:00:16.507Z,98912.00
2022-09-14T04:02:45.674Z,98911.66
2022-09-14T04:05:16.079Z,98912.51
2022-09-14T04:07:46.865Z,98919.38
2022-09-14T04:10:15.466Z,98922.11
2022-09-14T04:12:43.699Z,98922.39
2022-09-14T04:15:11.976Z,98926.29
2022-09-14T04:17:40.895Z,98931.36
2022-09-14T04:20:09.269Z,98935.09
2022-09-14T04:22:37.749Z,98934.45
2022-09-14T04:25:06.742Z,98942.59
2022-09-14T04:27:34.941Z,98948.31
2022-09-14T04:30:04.424Z,98951.25
2022-09-14T04:32:34.486Z,98947.97
2022-09-14T04:35:03.032Z,98949.98
2022-09-14T04:37:32.743Z,98952.74
2022-09-14T04:40:01.266Z,98956.27
2022-09-14T04:42:30.049Z,98960.77
2022-09-14T04:44:58.377Z,98949.71
2022-09-14T04:47:28.774Z,98949.55
2022-09-14T04:49:56.988Z,98951.35
2022-09-14T04:52:25.233Z,98949.58
2022-09-14T04:54:53.748Z,98952.59
2022-09-14T04:57:22.243Z,98940.48
2022-09-14T04:59:50.422Z,98940.41
2022-09-14T05:02:19.188Z,98939.89
2022-09-14T05:04:47.745Z,98943.98
2022-09-14T05:07:16.079Z,98946.35
2022-09-14T05:09:44.385Z,98943.34
2022-09-14T05:12:12.588Z,98939.90
2022-09-14T05:14:40.761Z,98943.64
2022-09-14T05:17:09.377Z,98941.68
2022-09-14T05:19:37.481Z,98946.36
2022-09-14T05:22:05.671Z,98947.02
2022-09-14T05:24:34.084Z,98945.05
2022-09-14T05:27:02.534Z,98947.66
2022-09-14T05:29:32.060Z,98953.17
2022-09-14T05:32:00.742Z,98946.54
2022-09-14T05:34:29.019Z,98948.60
2022-09-14T05:36:57.458Z,98944.91
2022-09-14T05:39:25.878Z,98944.01
2022-09-14T05:41:54.255Z,98943.16
2022-09-14T05:44:22.557Z,98945.10
2022-09-14T05:46:51.094Z,98942.50
2022-09-14T05:49:19.390Z,98949.74
2022-09-14T05:51:47.621Z,98952.66
2022-09-14T05:54:15.954Z,98954.93
2022-09-14T05:56:44.105Z,98958.46
2022-09-14T05:59:12.596Z,98955.39
2022-09-14T06:01:41.233Z,98958.08
2022-09-14T06:04:11.434Z,98952.23
2022-09-14T06:06:39.883Z,98956.41
2022-09-14T06:09:08.233Z,98953.95
2022-09-14T06:11:36.742Z,98957.06
2022-09-14T06:14:06.146Z,98954.48
2022-09-14T06:26:25.195Z,98962.46
2022-09-14T06:28:53.752Z,98965.09
2022-09-14T06:31:25.698Z,98964.31
2022-09-14T06:33:54.301Z,98958.35
2022-09-14T06:36:25.805Z,98960.16
2022-09-14T06:38:55.368Z,98958.61
2022-09-14T06:41:29.140Z,98961.71
2022-09-14T06:43:59.922Z,98955.75
2022-09-14T06:46:31.509Z,98957.13
2022-09-14T06:49:03.540Z,98956.16
2022-09-14T06:51:33.369Z,98952.34
2022-09-14T06:54:02.727Z,98951.27
2022-09-14T06:56:39.115Z,98951.39
2022-09-14T06:59:10.238Z,98961.12
2022-09-14T07:01:39.085Z,98956.66
2022-09-14T07:04:08.030Z,98964.33
2022-09-14T07:06:42.501Z,98972.15
2022-09-14T07:09:11.661Z,98974.48
2022-09-14T07:11:40.729Z,98980.95
2022-09-14T07:14:09.577Z,98991.02
2022-09-14T07:16:40.159Z,98993.92
2022-09-14T07:19:12.289Z,98994.06
2022-09-14T07:21:41.942Z,98994.08
2022-09-14T07:24:12.707Z,98998.30
2022-09-14T07:26:42.904Z,98995.67
2022-09-14T07:29:14.993Z,98994.52
2022-09-14T07:31:46.948Z,98989.05
2022-09-14T07:34:16.058Z,98985.12
2022-09-14T07:36:44.380Z,98992.67
2022-09-14T07:39:15.046Z,98994.55
2022-09-14T07:41:44.003Z,98985.48
2022-09-14T07:44:17.321Z,98990.33
2022-09-14T07:46:46.948Z,98989.95
2022-09-14T07:49:16.514Z,98997.35
2022-09-14T07:51:45.939Z,99000.61
2022-09-14T07:54:16.851Z,98991.71
2022-09-14T07:56:46.060Z,99002.92
2022-09-14T07:59:35.064Z,98998.77
2022-09-14T08:02:06.218Z,99010.30
2022-09-14T08:04:36.503Z,99007.45
2022-09-14T08:07:05.625Z,99007.39
2022-09-14T08:09:34.268Z,99008.09
2022-09-14T08:12:04.284Z,99008.70
2022-09-14T08:14:32.553Z,99004.08
2022-09-14T08:17:01.219Z,99003.54
2022-09-14T08:19:30.540Z,99000.08
2022-09-14T08:21:58.732Z,99001.41
2022-09-14T08:24:26.912Z,99005.86
2022-09-14T08:26:55.711Z,99006.56
2022-09-14T08:29:23.848Z,98991.85
2022-09-14T08:31:53.310Z,98995.66
2022-09-14T08:34:22.039Z,99000.09
2022-09-14T08:36:50.722Z,98990.45
2022-09-14T08:39:19.305Z,98999.97
2022-09-14T08:41:57.050Z,99005.59
2022-09-14T08:44:43.116Z,99004.25
2022-09-14T08:47:40.249Z,98992.39
2022-09-14T08:50:18.115Z,99005.84
2022-09-14T08:52:55.240Z,98993.69
2022-09-14T08:55:46.442Z,98995.27
2022-09-14T08:58:48.145Z,98989.67
2022-09-14T09:01:42.706Z,98999.11
2022-09-14T09:04:23.099Z,98996.52
2022-09-14T09:07:32.193Z,98998.13
2022-09-14T09:10:01.719Z,99003.94
2022-09-14T09:12:37.719Z,99002.90
2022-09-14T09:15:24.975Z,99004.58
2022-09-14T09:18:01.648Z,99012.09
2022-09-14T09:20:33.917Z,99006.65
2022-09-14T09:23:21.745Z,98997.84
2022-09-14T09:26:09.938Z,98999.80
2022-09-14T09:28:48.513Z,99012.77
2022-09-14T09:31:20.336Z,99018.70
2022-09-14T09:34:15.619Z,99020.23
2022-09-14T09:36:48.126Z,99015.29
2022-09-14T09:39:17.413Z,99020.84
2022-09-14T09:42:14.217Z,99024.59
2022-09-14T09:45:00.677Z,99021.27
2022-09-14T09:47:38.809Z,99027.13
2022-09-14T09:50:20.468Z,99036.23
2022-09-14T09:53:03.278Z,99035.03
2022-09-14T09:55:39.052Z,99028.27
2022-09-14T09:58:34.891Z,99031.75
2022-09-14T10:01:12.107Z,99022.42
2022-09-14T10:03:41.480Z,99021.04
2022-09-14T10:06:14.918Z,99019.64
2022-09-14T10:08:46.784Z,99022.40
2022-09-14T10:11:31.736Z,99021.23
2022-09-14T10:14:00.898Z,99020.13
2022-09-14T10:16:39.197Z,99021.09
2022-09-14T10:19:20.391Z,99016.62
2022-09-14T10:22:02.182Z,99016.48
2022-09-14T10:24:32.705Z,99018.77
2022-09-14T10:27:01.029Z,99022.39
2022-09-14T10:29:42.745Z,99023.96
2022-09-14T10:32:22.356Z,99019.70
2022-09-14T10:34:53.872Z,99021.53
2022-09-14T10:37:37.817Z,99022.52
2022-09-14T10:40:24.136Z,99020.41
2022-09-14T10:43:16.147Z,99031.17
2022-09-14T10:45:53.045Z,99027.64
2022-09-14T10:48:27.140Z,99028.60
2022-09-14T10:51:39.214Z,99015.92
2022-09-14T10:54:37.010Z,99021.50
2022-09-14T10:57:05.867Z,99024.83
2022-09-14T10:59:44.065Z,99015.26
2022-09-14T11:02:25.550Z,99010.02
2022-09-14T11:05:06.956Z,99015.84
2022-09-14T11:08:03.619Z,99022.98
2022-09-14T11:10:49.858Z,99024.59
2022-09-14T11:13:32.854Z,99032.83
2022-09-14T11:16:24.127Z,99025.54
2022-09-14T11:19:20.309Z,99039.09
2022-09-14T11:21:57.385Z,99028.65
2022-09-14T11:24:35.693Z,99026.43
2022-09-14T11:27:11.817Z,99028.34
2022-09-14T11:29:53.634Z,99031.95
2022-09-14T11:32:40.473Z,99035.05
2022-09-14T11:35:18.545Z,99034.39
2022-09-14T11:37:55.805Z,99027.94
2022-09-14T11:40:33.132Z,99033.56
2022-09-14T11:43:10.459Z,99033.16
2022-09-14T11:45:47.186Z,99029.75
2022-09-14T11:48:44.209Z,99036.27
2022-09-14T11:51:19.500Z,99031.02
2022-09-14T11:53:48.513Z,99028.23
2022-09-14T11:56:24.146Z,99027.52
2022-09-14T11:59:07.253Z,99033.19
2022-09-14T12:01:39.662Z,99029.00
2022-09-14T12:04:12.535Z,99033.77
2022-09-14T12:06:40.989Z,99032.95
2022-09-14T12:09:21.067Z,99028.79
2022-09-14T12:12:00.533Z,99028.70
2022-09-14T12:14:36.796Z,99034.27
2022-09-14T12:20:37.617Z,99033.69
2022-09-14T12:23:26.798Z,99033.50
2022-09-14T12:25:57.385Z,99037.65
2022-09-14T12:28:38.361Z,99040.73
2022-09-14T12:31:06.550Z,99047.61
2022-09-14T12:33:34.812Z,99053.10
2022-09-14T12:36:11.129Z,99055.54
2022-09-14T12:39:03.757Z,99053.15
2022-09-14T12:41:34.965Z,99053.45
2022-09-14T12:44:05.115Z,99050.21
2022-09-14T12:46:38.878Z,99055.84
2022-09-14T12:49:30.821Z,99067.11
2022-09-14T12:52:05.067Z,99062.19
2022-09-14T12:54:52.081Z,99057.63
2022-09-14T12:57:35.595Z,99057.77
2022-09-14T13:22:02.999Z,99061.67
2022-09-14T13:24:34.958Z,99060.57
2022-09-14T13:27:04.960Z,99060.79
2022-09-14T13:29:33.189Z,99063.33
2022-09-14T13:32:03.935Z,99055.83
2022-09-14T13:34:37.127Z,99050.52
2022-09-14T13:37:06.295Z,99050.83
2022-09-14T13:39:37.515Z,99052.48
2022-09-14T13:42:06.908Z,99058.05
2022-09-14T13:44:45.494Z,99056.45
2022-09-14T13:47:25.703Z,99047.83
2022-09-14T13:49:56.148Z,99045.15
2022-09-14T13:52:34.288Z,99040.02
2022-09-14T13:55:33.629Z,99034.22
2022-09-14T13:58:11.847Z,99029.95
2022-09-14T14:01:05.490Z,99028.63
2022-09-14T14:03:38.887Z,99027.84
2022-09-14T14:06:38.252Z,99026.16
2022-09-14T14:09:11.489Z,99033.06
2022-09-14T14:11:53.871Z,99026.45
2022-09-14T14:14:31.138Z,99023.58
2022-09-14T14:17:20.363Z,99021.95
2022-09-14T14:19:50.315Z,99019.67
2022-09-14T14:22:24.289Z,99019.94
2022-09-14T14:27:45.224Z,99019.42
2022-09-14T14:30:20.963Z,99016.27
2022-09-14T14:32:51.603Z,99025.65
2022-09-14T14:35:23.250Z,99018.01
2022-09-14T14:37:52.140Z,99020.00
2022-09-14T14:40:21.109Z,99019.42
2022-09-14T14:42:50.956Z,99016.05
2022-09-14T14:45:22.703Z,99017.10
2022-09-14T14:47:51.183Z,99008.55
2022-09-14T14:50:26.872Z,99011.09
2022-09-14T14:52:55.825Z,99017.28
2022-09-14T14:55:25.842Z,99014.19
2022-09-14T14:57:54.511Z,99010.39
2022-09-14T15:00:24.647Z,99004.73
2022-09-14T15:02:53.129Z,99004.13
2022-09-14T15:05:21.918Z,99009.13
2022-09-14T15:07:52.646Z,99016.38
2022-09-14T17:45:54.643Z,98971.67
2022-09-14T17:48:24.982Z,98969.11
2022-09-14T17:50:54.982Z,98971.71
2022-09-14T17:53:23.769Z,98966.33
2022-09-14T17:55:52.662Z,98966.91
2022-09-14T17:58:21.824Z,98966.38
2022-09-14T18:00:51.190Z,98968.37
2022-09-14T18:03:20.913Z,98974.33
2022-09-14T18:05:55.907Z,98970.33
2022-09-14T18:08:25.193Z,98968.73
2022-09-14T18:10:53.992Z,98971.56
2022-09-14T18:13:23.096Z,98966.71
2022-09-14T18:15:56.470Z,98970.09
2022-09-14T18:18:26.117Z,98967.67
2022-09-14T18:20:54.982Z,98969.88
2022-09-14T18:23:24.351Z,98967.16
2022-09-14T18:25:53.466Z,98966.65
2022-09-14T18:28:23.904Z,98968.05
2022-09-14T18:31:00.674Z,98968.67
2022-09-14T18:33:30.100Z,98969.52
2022-09-14T18:35:59.330Z,98969.79
2022-09-14T18:38:29.588Z,98970.51
2022-09-14T18:41:05.926Z,98968.60
2022-09-14T18:43:35.223Z,98959.36
2022-09-14T18:46:08.082Z,98958.34
2022-09-14T18:48:36.629Z,98961.39
2022-09-14T18:51:05.730Z,98955.85
2022-09-14T18:53:34.906Z,98955.29
2022-09-14T18:56:09.008Z,98948.93
2022-09-14T18:58:40.581Z,98946.45
2022-09-14T19:01:10.851Z,98948.88
2022-09-14T19:03:41.267Z,98949.45
2022-09-14T19:06:13.409Z,98949.11
2022-09-14T19:08:42.996Z,98951.61
2022-09-14T19:11:15.531Z,98953.44
2022-09-14T19:13:45.138Z,98954.53
2022-09-14T19:16:17.304Z,98953.89
2022-09-14T19:18:46.976Z,98953.10
2022-09-14T19:21:27.728Z,98952.08
2022-09-14T19:24:01.821Z,98946.04
2022-09-14T19:26:39.066Z,98943.30
2022-09-14T19:29:11.762Z,98938.54
2022-09-14T19:31:41.512Z,98938.41
2022-09-14T19:34:10.880Z,98941.48
2022-09-14T19:36:39.108Z,98935.65
2022-09-14T19:39:07.800Z,98935.69
2022-09-14T19:41:37.210Z,98939.52
2022-09-14T19:44:07.781Z,98937.36
2022-09-14T19:46:39.577Z,98936.72
2022-09-14T19:49:15.045Z,98939.16
2022-09-14T19:51:43.938Z,98940.22
2022-09-14T19:54:12.814Z,98938.81
2022-09-14T19:56:42.013Z,98936.02
2022-09-14T19:59:11.002Z,98934.23
2022-09-14T20:01:40.509Z,98934.84
2022-09-14T20:04:10.870Z,98934.55
2022-09-14T20:06:42.922Z,98933.50
2022-09-14T20:09:13.555Z,98932.52
2022-09-14T20:11:44.083Z,98930.25
2022-09-14T20:14:15.612Z,98926.95
2022-09-14T20:16:47.191Z,98926.02
2022-09-14T20:19:17.589Z,98921.64
2022-09-14T20:21:47.580Z,98920.44
2022-09-14T20:24:19.706Z,98924.29
2022-09-14T20:26:50.457Z,98925.39
2022-09-14T20:29:20.832Z,98925.30
2022-09-14T20:31:50.176Z,98917.45
2022-09-14T20:34:20.639Z,98913.15
2022-09-14T20:36:50.481Z,98915.38
2022-09-14T20:39:20.032Z,98914.60
2022-09-14T20:41:48.767Z,98909.14
2022-09-14T20:44:22.290Z,98910.95
2022-09-14T20:46:51.486Z,98908.92
2022-09-14T20:49:22.603Z,98914.98
2022-09-14T20:51:55.087Z,98922.30
2022-09-14T20:54:23.510Z,98920.98
2022-09-14T20:56:52.246Z,98920.02
2022-09-14T20:59:22.414Z,98923.16
2022-09-14T21:01:52.786Z,98925.22
2022-09-14T21:04:24.366Z,98918.84
2022-09-14T21:06:56.304Z,98915.64
2022-09-14T21:09:27.246Z,98912.52
2022-09-14T21:11:55.825Z,98917.64
2022-09-14T21:14:24.325Z,98916.56
2022-09-14T21:16:55.451Z,98914.61
2022-09-14T21:19:27.586Z,98918.58
2022-09-14T21:21:56.597Z,98916.23
2022-09-14T21:24:25.198Z,98914.17
